sensor_id;sensor_type;location;lat;lon;timestamp;pressure;altitude;pressure_sealevel;temperature;humidity
22580;BME280;11456;47.030;15.396;2023-01-31T00:00:56;97525.56;;;3.99;67.30
22580;BME280;11456;47.030;15.396;2023-01-31T00:03:23;97532.75;;;3.86;67.21
22580;BME280;11456;47.030;15.396;2023-01-31T00:05:49;97528.63;;;3.82;67.60
22580;BME280;11456;47.030;15.396;2023-01-31T00:08:16;97518.53;;;3.98;66.66
22580;BME280;11456;47.030;15.396;2023-01-31T00:10:43;97532.59;;;4.00;67.06
22580;BME280;11456;47.030;15.396;2023-01-31T00:13:10;97524.16;;;4.18;66.30
22580;BME280;11456;47.030;15.396;2023-01-31T00:15:36;97526.63;;;4.32;66.67
22580;BME280;11456;47.030;15.396;2023-01-31T00:18:04;97527.50;;;4.32;64.82
22580;BME280;11456;47.030;15.396;2023-01-31T00:20:31;97530.44;;;4.06;65.26
22580;BME280;11456;47.030;15.396;2023-01-31T00:22:57;97521.00;;;4.13;65.08
22580;BME280;11456;47.030;15.396;2023-01-31T00:25:24;97531.91;;;4.10;64.71
22580;BME280;11456;47.030;15.396;2023-01-31T00:27:50;97539.38;;;4.04;63.96
22580;BME280;11456;47.030;15.396;2023-01-31T00:30:17;97540.63;;;4.12;64.00
22580;BME280;11456;47.030;15.396;2023-01-31T00:32:44;97551.22;;;4.24;62.57
22580;BME280;11456;47.030;15.396;2023-01-31T00:35:10;97545.78;;;4.37;62.28
22580;BME280;11456;47.030;15.396;2023-01-31T00:37:37;97558.03;;;4.28;61.46
22580;BME280;11456;47.030;15.396;2023-01-31T00:40:03;97569.47;;;4.18;61.92
22580;BME280;11456;47.030;15.396;2023-01-31T00:42:30;97554.72;;;4.25;61.99
22580;BME280;11456;47.030;15.396;2023-01-31T00:44:56;97560.34;;;4.33;60.99
22580;BME280;11456;47.030;15.396;2023-01-31T00:47:23;97554.84;;;4.23;61.64
22580;BME280;11456;47.030;15.396;2023-01-31T00:49:49;97567.38;;;4.34;61.92
22580;BME280;11456;47.030;15.396;2023-01-31T00:52:16;97584.06;;;4.25;62.04
22580;BME280;11456;47.030;15.396;2023-01-31T00:54:43;97580.41;;;4.26;62.20
22580;BME280;11456;47.030;15.396;2023-01-31T00:57:09;97570.72;;;4.25;62.29
22580;BME280;11456;47.030;15.396;2023-01-31T00:59:36;97567.91;;;4.15;63.41
22580;BME280;11456;47.030;15.396;2023-01-31T01:02:04;97578.44;;;4.17;63.49
22580;BME280;11456;47.030;15.396;2023-01-31T01:04:31;97579.50;;;4.03;64.97
22580;BME280;11456;47.030;15.396;2023-01-31T01:06:57;97583.47;;;4.32;64.47
22580;BME280;11456;47.030;15.396;2023-01-31T01:09:23;97593.72;;;4.15;66.00
22580;BME280;11456;47.030;15.396;2023-01-31T01:11:50;97584.97;;;4.13;66.07
22580;BME280;11456;47.030;15.396;2023-01-31T01:14:17;97579.34;;;4.04;66.30
22580;BME280;11456;47.030;15.396;2023-01-31T01:16:43;97600.50;;;4.19;66.75
22580;BME280;11456;47.030;15.396;2023-01-31T01:19:17;97586.88;;;4.11;67.19
22580;BME280;11456;47.030;15.396;2023-01-31T01:21:45;97582.38;;;4.00;67.94
22580;BME280;11456;47.030;15.396;2023-01-31T01:24:16;97588.50;;;3.89;68.50
22580;BME280;11456;47.030;15.396;2023-01-31T01:26:43;97602.22;;;3.96;67.88
22580;BME280;11456;47.030;15.396;2023-01-31T01:29:10;97612.41;;;4.26;66.73
22580;BME280;11456;47.030;15.396;2023-01-31T01:31:38;97590.09;;;4.16;66.92
22580;BME280;11456;47.030;15.396;2023-01-31T01:34:10;97610.31;;;3.94;68.15
22580;BME280;11456;47.030;15.396;2023-01-31T01:36:37;97608.91;;;4.01;68.10
22580;BME280;11456;47.030;15.396;2023-01-31T01:39:05;97606.56;;;3.97;67.89
22580;BME280;11456;47.030;15.396;2023-01-31T01:41:32;97608.44;;;4.08;67.38
22580;BME280;11456;47.030;15.396;2023-01-31T01:44:41;97617.53;;;4.29;65.43
22580;BME280;11456;47.030;15.396;2023-01-31T01:46:50;97621.47;;;3.99;66.30
22580;BME280;11456;47.030;15.396;2023-01-31T01:49:19;97602.06;;;3.97;67.41
22580;BME280;11456;47.030;15.396;2023-01-31T01:51:48;97603.50;;;4.38;64.37
22580;BME280;11456;47.030;15.396;2023-01-31T01:54:18;97608.38;;;4.20;65.37
22580;BME280;11456;47.030;15.396;2023-01-31T01:56:46;97603.97;;;4.08;65.88
22580;BME280;11456;47.030;15.396;2023-01-31T01:59:19;97604.44;;;4.02;66.58
22580;BME280;11456;47.030;15.396;2023-01-31T02:01:47;97610.03;;;3.86;66.83
22580;BME280;11456;47.030;15.396;2023-01-31T02:04:20;97603.97;;;4.08;66.49
22580;BME280;11456;47.030;15.396;2023-01-31T02:06:47;97619.88;;;4.79;63.54
22580;BME280;11456;47.030;15.396;2023-01-31T02:09:19;97618.53;;;4.39;64.08
22580;BME280;11456;47.030;15.396;2023-01-31T02:11:48;97619.91;;;4.21;65.67
22580;BME280;11456;47.030;15.396;2023-01-31T02:14:18;97623.34;;;4.10;66.10
22580;BME280;11456;47.030;15.396;2023-01-31T02:16:45;97621.22;;;4.15;65.98
22580;BME280;11456;47.030;15.396;2023-01-31T02:19:19;97615.75;;;4.17;65.81
22580;BME280;11456;47.030;15.396;2023-01-31T02:27:52;97635.09;;;4.08;66.50
22580;BME280;11456;47.030;15.396;2023-01-31T02:35:53;97637.06;;;3.93;66.93
22580;BME280;11456;47.030;15.396;2023-01-31T02:38:27;97630.03;;;3.92;67.20
22580;BME280;11456;47.030;15.396;2023-01-31T02:41:12;97631.06;;;4.02;66.55
22580;BME280;11456;47.030;15.396;2023-01-31T02:43:43;97635.50;;;4.14;66.77
22580;BME280;11456;47.030;15.396;2023-01-31T02:46:38;97640.28;;;3.85;67.50
22580;BME280;11456;47.030;15.396;2023-01-31T02:49:15;97646.69;;;3.83;67.87
22580;BME280;11456;47.030;15.396;2023-01-31T02:57:43;97641.56;;;3.80;68.54
22580;BME280;11456;47.030;15.396;2023-01-31T03:00:11;97651.47;;;3.90;68.39
22580;BME280;11456;47.030;15.396;2023-01-31T03:02:38;97649.38;;;4.07;67.38
22580;BME280;11456;47.030;15.396;2023-01-31T03:05:05;97651.16;;;3.82;68.52
22580;BME280;11456;47.030;15.396;2023-01-31T03:07:33;97656.91;;;3.89;68.04
22580;BME280;11456;47.030;15.396;2023-01-31T03:12:38;97663.75;;;3.80;68.42
22580;BME280;11456;47.030;15.396;2023-01-31T03:15:23;97667.16;;;3.82;67.83
22580;BME280;11456;47.030;15.396;2023-01-31T03:20:21;97671.19;;;3.88;67.41
22580;BME280;11456;47.030;15.396;2023-01-31T03:22:51;97670.53;;;3.84;66.70
22580;BME280;11456;47.030;15.396;2023-01-31T03:25:20;97674.56;;;4.02;65.59
22580;BME280;11456;47.030;15.396;2023-01-31T03:27:54;97687.13;;;4.00;65.69
22580;BME280;11456;47.030;15.396;2023-01-31T03:30:30;97681.44;;;3.81;66.26
22580;BME280;11456;47.030;15.396;2023-01-31T03:32:59;97685.28;;;3.77;66.19
22580;BME280;11456;47.030;15.396;2023-01-31T03:35:29;97693.78;;;3.82;66.86
22580;BME280;11456;47.030;15.396;2023-01-31T03:40:25;97704.00;;;3.88;65.78
22580;BME280;11456;47.030;15.396;2023-01-31T03:43:11;97703.59;;;3.82;65.76
22580;BME280;11456;47.030;15.396;2023-01-31T03:45:56;97700.97;;;4.06;65.80
22580;BME280;11456;47.030;15.396;2023-01-31T03:48:28;97693.00;;;3.93;65.64
22580;BME280;11456;47.030;15.396;2023-01-31T03:51:00;97684.59;;;3.86;65.81
22580;BME280;11456;47.030;15.396;2023-01-31T03:56:03;97686.00;;;3.79;65.92
22580;BME280;11456;47.030;15.396;2023-01-31T03:58:35;97689.91;;;3.99;65.26
22580;BME280;11456;47.030;15.396;2023-01-31T04:01:04;97712.97;;;3.75;65.34
22580;BME280;11456;47.030;15.396;2023-01-31T04:06:00;97703.28;;;3.74;65.85
22580;BME280;11456;47.030;15.396;2023-01-31T04:08:28;97699.78;;;3.60;67.32
22580;BME280;11456;47.030;15.396;2023-01-31T04:11:01;97708.88;;;3.45;66.70
22580;BME280;11456;47.030;15.396;2023-01-31T04:13:28;97710.44;;;3.60;66.44
22580;BME280;11456;47.030;15.396;2023-01-31T04:15:55;97708.88;;;3.33;67.26
22580;BME280;11456;47.030;15.396;2023-01-31T04:18:22;97709.59;;;3.22;68.14
22580;BME280;11456;47.030;15.396;2023-01-31T04:20:48;97711.09;;;3.26;68.13
22580;BME280;11456;47.030;15.396;2023-01-31T04:23:15;97713.63;;;3.28;68.51
22580;BME280;11456;47.030;15.396;2023-01-31T04:25:41;97720.56;;;3.17;68.31
22580;BME280;11456;47.030;15.396;2023-01-31T04:28:07;97723.38;;;2.89;70.15
22580;BME280;11456;47.030;15.396;2023-01-31T04:30:34;97717.94;;;3.92;66.50
22580;BME280;11456;47.030;15.396;2023-01-31T04:33:00;97727.28;;;3.36;67.58
22580;BME280;11456;47.030;15.396;2023-01-31T04:35:27;97725.25;;;3.52;67.85
22580;BME280;11456;47.030;15.396;2023-01-31T04:37:53;97724.88;;;2.80;70.26
22580;BME280;11456;47.030;15.396;2023-01-31T04:40:20;97731.69;;;2.97;70.30
22580;BME280;11456;47.030;15.396;2023-01-31T04:42:48;97723.31;;;2.64;71.72
22580;BME280;11456;47.030;15.396;2023-01-31T04:45:15;97715.75;;;2.58;71.85
22580;BME280;11456;47.030;15.396;2023-01-31T04:47:41;97714.19;;;2.68;71.57
22580;BME280;11456;47.030;15.396;2023-01-31T04:50:08;97727.13;;;2.60;71.62
22580;BME280;11456;47.030;15.396;2023-01-31T04:52:35;97735.63;;;2.52;72.94
22580;BME280;11456;47.030;15.396;2023-01-31T04:55:02;97740.16;;;2.50;72.81
22580;BME280;11456;47.030;15.396;2023-01-31T04:57:28;97732.78;;;3.07;70.37
22580;BME280;11456;47.030;15.396;2023-01-31T04:59:55;97727.63;;;2.79;71.00
22580;BME280;11456;47.030;15.396;2023-01-31T05:02:21;97717.25;;;3.77;68.14
22580;BME280;11456;47.030;15.396;2023-01-31T05:04:48;97721.91;;;2.85;70.43
22580;BME280;11456;47.030;15.396;2023-01-31T05:07:15;97729.25;;;2.55;72.87
22580;BME280;11456;47.030;15.396;2023-01-31T05:09:41;97739.69;;;1.76;76.60
22580;BME280;11456;47.030;15.396;2023-01-31T05:12:09;97742.03;;;1.94;76.29
22580;BME280;11456;47.030;15.396;2023-01-31T05:14:35;97752.34;;;1.99;77.12
22580;BME280;11456;47.030;15.396;2023-01-31T05:17:02;97764.50;;;2.03;77.14
22580;BME280;11456;47.030;15.396;2023-01-31T05:19:28;97749.53;;;2.02;76.37
22580;BME280;11456;47.030;15.396;2023-01-31T05:21:55;97755.22;;;1.96;76.89
22580;BME280;11456;47.030;15.396;2023-01-31T05:24:25;97760.22;;;2.00;76.98
22580;BME280;11456;47.030;15.396;2023-01-31T05:26:52;97756.34;;;1.35;78.76
22580;BME280;11456;47.030;15.396;2023-01-31T05:29:24;97760.53;;;1.25;80.14
22580;BME280;11456;47.030;15.396;2023-01-31T05:31:55;97762.19;;;1.12;80.53
22580;BME280;11456;47.030;15.396;2023-01-31T05:34:22;97772.59;;;1.01;81.91
22580;BME280;11456;47.030;15.396;2023-01-31T05:36:51;97766.72;;;1.10;81.24
22580;BME280;11456;47.030;15.396;2023-01-31T05:39:17;97750.97;;;0.93;81.58
22580;BME280;11456;47.030;15.396;2023-01-31T05:41:44;97755.00;;;0.84;82.17
22580;BME280;11456;47.030;15.396;2023-01-31T05:44:10;97752.13;;;0.89;82.40
22580;BME280;11456;47.030;15.396;2023-01-31T05:46:37;97757.22;;;0.92;81.64
22580;BME280;11456;47.030;15.396;2023-01-31T05:49:04;97751.31;;;1.16;80.10
22580;BME280;11456;47.030;15.396;2023-01-31T05:51:30;97762.09;;;0.69;81.67
22580;BME280;11456;47.030;15.396;2023-01-31T05:53:57;97770.13;;;0.68;82.02
22580;BME280;11456;47.030;15.396;2023-01-31T05:56:24;97760.03;;;0.74;81.96
22580;BME280;11456;47.030;15.396;2023-01-31T05:58:50;97782.78;;;0.63;81.81
22580;BME280;11456;47.030;15.396;2023-01-31T06:01:18;97769.97;;;0.55;82.40
22580;BME280;11456;47.030;15.396;2023-01-31T06:03:47;97765.03;;;0.49;82.50
22580;BME280;11456;47.030;15.396;2023-01-31T06:06:14;97757.66;;;0.38;82.72
22580;BME280;11456;47.030;15.396;2023-01-31T06:08:40;97770.34;;;0.49;82.78
22580;BME280;11456;47.030;15.396;2023-01-31T06:11:10;97765.72;;;0.37;83.77
22580;BME280;11456;47.030;15.396;2023-01-31T06:13:37;97764.53;;;0.43;83.55
22580;BME280;11456;47.030;15.396;2023-01-31T06:16:04;97765.03;;;0.49;83.62
22580;BME280;11456;47.030;15.396;2023-01-31T06:18:30;97760.25;;;0.40;83.94
22580;BME280;11456;47.030;15.396;2023-01-31T06:20:57;97753.22;;;0.39;83.14
22580;BME280;11456;47.030;15.396;2023-01-31T06:23:24;97760.09;;;0.43;82.72
22580;BME280;11456;47.030;15.396;2023-01-31T06:25:51;97760.63;;;0.18;84.15
22580;BME280;11456;47.030;15.396;2023-01-31T06:28:18;97764.19;;;0.02;84.84
22580;BME280;11456;47.030;15.396;2023-01-31T06:30:44;97761.19;;;0.08;85.02
22580;BME280;11456;47.030;15.396;2023-01-31T06:33:11;97763.34;;;0.17;85.11
22580;BME280;11456;47.030;15.396;2023-01-31T06:35:38;97762.22;;;0.21;84.37
22580;BME280;11456;47.030;15.396;2023-01-31T06:38:05;97771.22;;;0.18;84.62
22580;BME280;11456;47.030;15.396;2023-01-31T06:40:32;97769.22;;;0.22;84.56
22580;BME280;11456;47.030;15.396;2023-01-31T06:42:58;97778.00;;;0.69;85.77
22580;BME280;11456;47.030;15.396;2023-01-31T06:45:25;97781.41;;;1.88;84.18
22580;BME280;11456;47.030;15.396;2023-01-31T06:47:51;97776.63;;;2.21;77.12
22580;BME280;11456;47.030;15.396;2023-01-31T06:50:18;97765.00;;;1.81;77.32
22580;BME280;11456;47.030;15.396;2023-01-31T06:52:44;97782.72;;;1.38;78.94
22580;BME280;11456;47.030;15.396;2023-01-31T06:55:11;97798.44;;;2.26;78.16
22580;BME280;11456;47.030;15.396;2023-01-31T06:57:44;97801.19;;;2.66;75.77
22580;BME280;11456;47.030;15.396;2023-01-31T07:00:11;97795.78;;;2.26;75.43
22580;BME280;11456;47.030;15.396;2023-01-31T07:02:37;97797.09;;;2.19;76.75
22580;BME280;11456;47.030;15.396;2023-01-31T07:05:04;97807.00;;;2.03;76.19
22580;BME280;11456;47.030;15.396;2023-01-31T07:07:31;97790.78;;;1.51;81.02
22580;BME280;11456;47.030;15.396;2023-01-31T07:09:57;97792.50;;;1.80;81.66
22580;BME280;11456;47.030;15.396;2023-01-31T07:12:24;97803.47;;;2.58;78.81
22580;BME280;11456;47.030;15.396;2023-01-31T07:14:51;97807.47;;;2.51;78.99
22580;BME280;11456;47.030;15.396;2023-01-31T07:17:18;97801.47;;;2.88;79.10
22580;BME280;11456;47.030;15.396;2023-01-31T07:19:46;97801.94;;;3.07;78.15
22580;BME280;11456;47.030;15.396;2023-01-31T07:22:12;97795.16;;;3.16;77.39
22580;BME280;11456;47.030;15.396;2023-01-31T07:24:39;97797.94;;;4.28;76.73
22580;BME280;11456;47.030;15.396;2023-01-31T07:27:05;97800.59;;;5.36;72.46
22580;BME280;11456;47.030;15.396;2023-01-31T07:29:32;97795.78;;;5.63;69.71
22580;BME280;11456;47.030;15.396;2023-01-31T07:31:59;97804.38;;;6.58;68.57
22580;BME280;11456;47.030;15.396;2023-01-31T07:34:25;97802.38;;;6.82;65.47
22580;BME280;11456;47.030;15.396;2023-01-31T07:36:52;97806.66;;;7.16;62.72
22580;BME280;11456;47.030;15.396;2023-01-31T07:39:18;97804.66;;;6.87;63.22
22580;BME280;11456;47.030;15.396;2023-01-31T07:41:45;97813.31;;;6.79;60.38
22580;BME280;11456;47.030;15.396;2023-01-31T07:44:12;97805.50;;;7.51;58.15
22580;BME280;11456;47.030;15.396;2023-01-31T07:46:39;97812.16;;;7.36;58.03
22580;BME280;11456;47.030;15.396;2023-01-31T07:49:05;97805.78;;;6.84;61.45
22580;BME280;11456;47.030;15.396;2023-01-31T07:51:32;97792.59;;;8.07;58.75
22580;BME280;11456;47.030;15.396;2023-01-31T07:53:58;97810.09;;;7.60;58.31
22580;BME280;11456;47.030;15.396;2023-01-31T07:56:25;97804.59;;;7.82;56.75
22580;BME280;11456;47.030;15.396;2023-01-31T07:58:51;97816.69;;;7.56;57.92
22580;BME280;11456;47.030;15.396;2023-01-31T08:01:19;97810.56;;;7.86;54.15
22580;BME280;11456;47.030;15.396;2023-01-31T08:04:04;97811.41;;;7.86;54.92
22580;BME280;11456;47.030;15.396;2023-01-31T08:06:46;97814.94;;;7.13;51.83
22580;BME280;11456;47.030;15.396;2023-01-31T08:09:13;97827.97;;;7.39;51.26
22580;BME280;11456;47.030;15.396;2023-01-31T08:11:40;97831.94;;;7.76;49.23
22580;BME280;11456;47.030;15.396;2023-01-31T08:14:06;97834.13;;;7.30;49.73
22580;BME280;11456;47.030;15.396;2023-01-31T08:16:34;97837.75;;;6.97;48.48
22580;BME280;11456;47.030;15.396;2023-01-31T08:19:02;97830.94;;;7.24;48.53
22580;BME280;11456;47.030;15.396;2023-01-31T08:21:28;97835.81;;;8.14;47.83
22580;BME280;11456;47.030;15.396;2023-01-31T08:23:55;97850.19;;;8.54;51.13
22580;BME280;11456;47.030;15.396;2023-01-31T08:26:22;97846.25;;;8.58;49.19
22580;BME280;11456;47.030;15.396;2023-01-31T08:28:49;97851.28;;;8.00;50.48
22580;BME280;11456;47.030;15.396;2023-01-31T08:31:17;97865.84;;;7.02;51.56
22580;BME280;11456;47.030;15.396;2023-01-31T08:33:44;97854.22;;;6.14;54.77
22580;BME280;11456;47.030;15.396;2023-01-31T08:36:23;97853.38;;;5.68;56.51
22580;BME280;11456;47.030;15.396;2023-01-31T08:38:50;97857.28;;;6.32;54.75
22580;BME280;11456;47.030;15.396;2023-01-31T08:41:17;97865.38;;;6.08;53.50
22580;BME280;11456;47.030;15.396;2023-01-31T08:43:44;97864.03;;;7.67;51.34
22580;BME280;11456;47.030;15.396;2023-01-31T08:46:23;97855.91;;;6.82;54.01
22580;BME280;11456;47.030;15.396;2023-01-31T08:48:50;97865.63;;;6.05;54.50
22580;BME280;11456;47.030;15.396;2023-01-31T08:51:16;97882.19;;;6.55;54.49
22580;BME280;11456;47.030;15.396;2023-01-31T08:53:43;97883.25;;;6.85;53.18
22580;BME280;11456;47.030;15.396;2023-01-31T08:56:11;97887.06;;;6.83;52.13
22580;BME280;11456;47.030;15.396;2023-01-31T08:58:38;97886.06;;;6.17;54.69
22580;BME280;11456;47.030;15.396;2023-01-31T09:01:06;97875.28;;;7.17;52.90
22580;BME280;11456;47.030;15.396;2023-01-31T09:03:32;97882.56;;;7.90;51.04
22580;BME280;11456;47.030;15.396;2023-01-31T09:05:59;97881.44;;;8.34;50.14
22580;BME280;11456;47.030;15.396;2023-01-31T09:08:26;97876.94;;;7.93;49.54
22580;BME280;11456;47.030;15.396;2023-01-31T09:10:54;97882.78;;;8.80;48.75
22580;BME280;11456;47.030;15.396;2023-01-31T09:13:21;97892.78;;;8.38;47.44
22580;BME280;11456;47.030;15.396;2023-01-31T09:16:21;97891.81;;;8.28;47.17
22580;BME280;11456;47.030;15.396;2023-01-31T09:18:40;97901.91;;;7.41;49.61
22580;BME280;11456;47.030;15.396;2023-01-31T09:21:17;97899.88;;;8.07;48.20
22580;BME280;11456;47.030;15.396;2023-01-31T09:23:44;97896.69;;;8.34;48.13
22580;BME280;11456;47.030;15.396;2023-01-31T09:26:11;97898.31;;;9.07;46.55
22580;BME280;11456;47.030;15.396;2023-01-31T09:28:38;97907.28;;;9.55;44.83
22580;BME280;11456;47.030;15.396;2023-01-31T09:31:09;97889.19;;;9.77;43.08
22580;BME280;11456;47.030;15.396;2023-01-31T09:33:36;97896.50;;;10.52;43.61
22580;BME280;11456;47.030;15.396;2023-01-31T09:36:03;97883.78;;;10.25;39.46
22580;BME280;11456;47.030;15.396;2023-01-31T09:38:30;97887.50;;;9.56;42.10
22580;BME280;11456;47.030;15.396;2023-01-31T09:40:58;97885.38;;;10.74;37.85
22580;BME280;11456;47.030;15.396;2023-01-31T09:43:37;97879.72;;;10.67;36.36
22580;BME280;11456;47.030;15.396;2023-01-31T09:46:05;97878.47;;;10.62;36.30
22580;BME280;11456;47.030;15.396;2023-01-31T09:48:35;97880.69;;;11.48;35.51
22580;BME280;11456;47.030;15.396;2023-01-31T09:51:03;97884.97;;;10.96;35.65
22580;BME280;11456;47.030;15.396;2023-01-31T09:53:34;97887.56;;;11.43;37.60
22580;BME280;11456;47.030;15.396;2023-01-31T10:03:42;97889.34;;;9.46;40.55
22580;BME280;11456;47.030;15.396;2023-01-31T10:08:46;97897.69;;;9.53;38.82
22580;BME280;11456;47.030;15.396;2023-01-31T10:11:33;97895.72;;;10.03;37.89
22580;BME280;11456;47.030;15.396;2023-01-31T10:14:06;97896.69;;;10.21;38.39
22580;BME280;11456;47.030;15.396;2023-01-31T10:16:43;97898.75;;;11.20;36.01
22580;BME280;11456;47.030;15.396;2023-01-31T10:19:13;97880.94;;;11.10;34.74
22580;BME280;11456;47.030;15.396;2023-01-31T10:21:52;97891.06;;;10.98;34.98
22580;BME280;11456;47.030;15.396;2023-01-31T10:24:26;97887.06;;;11.30;32.42
22580;BME280;11456;47.030;15.396;2023-01-31T10:26:56;97890.88;;;10.35;33.48
22580;BME280;11456;47.030;15.396;2023-01-31T10:29:28;97896.16;;;10.74;35.15
22580;BME280;11456;47.030;15.396;2023-01-31T10:31:59;97892.22;;;12.03;34.04
22580;BME280;11456;47.030;15.396;2023-01-31T10:34:44;97894.28;;;11.11;34.04
22580;BME280;11456;47.030;15.396;2023-01-31T10:37:15;97895.03;;;11.49;34.86
22580;BME280;11456;47.030;15.396;2023-01-31T10:39:45;97894.66;;;11.44;31.34
22580;BME280;11456;47.030;15.396;2023-01-31T10:42:31;97885.94;;;12.64;30.48
22580;BME280;11456;47.030;15.396;2023-01-31T10:47:35;97878.47;;;13.92;31.28
22580;BME280;11456;47.030;15.396;2023-01-31T10:50:13;97873.94;;;12.93;30.89
22580;BME280;11456;47.030;15.396;2023-01-31T10:55:29;97881.25;;;11.52;32.80
22580;BME280;11456;47.030;15.396;2023-01-31T10:57:59;97882.00;;;10.62;32.73
22580;BME280;11456;47.030;15.396;2023-01-31T11:00:26;97871.41;;;11.33;34.03
22580;BME280;11456;47.030;15.396;2023-01-31T11:02:54;97879.31;;;11.44;33.56
22580;BME280;11456;47.030;15.396;2023-01-31T11:05:22;97872.69;;;10.84;32.41
22580;BME280;11456;47.030;15.396;2023-01-31T11:07:49;97871.91;;;11.46;32.11
22580;BME280;11456;47.030;15.396;2023-01-31T11:10:20;97871.91;;;11.01;31.25
22580;BME280;11456;47.030;15.396;2023-01-31T11:12:55;97861.53;;;11.69;32.01
22580;BME280;11456;47.030;15.396;2023-01-31T11:15:23;97863.09;;;11.89;33.26
22580;BME280;11456;47.030;15.396;2023-01-31T11:17:50;97860.19;;;11.83;32.31
22580;BME280;11456;47.030;15.396;2023-01-31T11:20:20;97863.22;;;10.80;31.23
22580;BME280;11456;47.030;15.396;2023-01-31T11:22:47;97855.72;;;12.43;31.55
22580;BME280;11456;47.030;15.396;2023-01-31T11:25:17;97843.31;;;12.07;29.69
22580;BME280;11456;47.030;15.396;2023-01-31T11:27:44;97833.63;;;11.78;29.51
22580;BME280;11456;47.030;15.396;2023-01-31T11:32:44;97843.06;;;13.61;31.35
22580;BME280;11456;47.030;15.396;2023-01-31T11:40:33;97841.41;;;14.25;28.86
22580;BME280;11456;47.030;15.396;2023-01-31T11:43:04;97840.69;;;13.08;28.90
22580;BME280;11456;47.030;15.396;2023-01-31T11:48:19;97841.72;;;11.96;28.85
22580;BME280;11456;47.030;15.396;2023-01-31T11:55:47;97830.75;;;12.15;30.55
22580;BME280;11456;47.030;15.396;2023-01-31T11:58:18;97830.19;;;13.47;30.25
22580;BME280;11456;47.030;15.396;2023-01-31T12:01:00;97832.84;;;12.55;28.47
22580;BME280;11456;47.030;15.396;2023-01-31T12:03:28;97827.53;;;14.12;29.83
22580;BME280;11456;47.030;15.396;2023-01-31T12:06:00;97842.06;;;14.52;27.64
22580;BME280;11456;47.030;15.396;2023-01-31T12:10:56;97841.50;;;15.50;27.40
22580;BME280;11456;47.030;15.396;2023-01-31T12:13:24;97840.28;;;15.84;25.57
22580;BME280;11456;47.030;15.396;2023-01-31T12:19:04;97835.44;;;15.09;25.23
22580;BME280;11456;47.030;15.396;2023-01-31T12:49:14;97803.59;;;16.11;25.34
22580;BME280;11456;47.030;15.396;2023-01-31T12:54:31;97804.91;;;15.69;24.90
22580;BME280;11456;47.030;15.396;2023-01-31T12:59:43;97807.94;;;15.43;25.31
22580;BME280;11456;47.030;15.396;2023-01-31T13:04:43;97810.94;;;13.75;26.21
22580;BME280;11456;47.030;15.396;2023-01-31T13:07:23;97811.97;;;14.85;24.69
22580;BME280;11456;47.030;15.396;2023-01-31T13:09:52;97810.94;;;15.25;25.90
22580;BME280;11456;47.030;15.396;2023-01-31T13:12:20;97810.28;;;13.81;26.35
22580;BME280;11456;47.030;15.396;2023-01-31T13:15:03;97809.38;;;15.62;24.36
22580;BME280;11456;47.030;15.396;2023-01-31T13:17:32;97807.47;;;15.93;24.17
22580;BME280;11456;47.030;15.396;2023-01-31T13:22:45;97810.19;;;16.31;23.49
22580;BME280;11456;47.030;15.396;2023-01-31T13:25:20;97802.69;;;16.33;23.98
22580;BME280;11456;47.030;15.396;2023-01-31T13:27:54;97790.25;;;15.24;24.62
22580;BME280;11456;47.030;15.396;2023-01-31T13:30:35;97798.28;;;15.72;23.97
22580;BME280;11456;47.030;15.396;2023-01-31T13:33:17;97788.28;;;15.72;24.57
22580;BME280;11456;47.030;15.396;2023-01-31T13:35:52;97798.78;;;15.13;24.83
22580;BME280;11456;47.030;15.396;2023-01-31T13:38:20;97793.38;;;16.27;23.55
22580;BME280;11456;47.030;15.396;2023-01-31T13:40:51;97799.69;;;16.28;23.79
22580;BME280;11456;47.030;15.396;2023-01-31T13:43:18;97784.06;;;15.92;23.75
22580;BME280;11456;47.030;15.396;2023-01-31T13:45:51;97783.31;;;15.98;24.75
22580;BME280;11456;47.030;15.396;2023-01-31T13:48:27;97782.28;;;16.37;23.38
22580;BME280;11456;47.030;15.396;2023-01-31T13:51:07;97781.84;;;16.11;24.39
22580;BME280;11456;47.030;15.396;2023-01-31T13:53:47;97785.34;;;14.97;25.17
22580;BME280;11456;47.030;15.396;2023-01-31T13:56:33;97783.69;;;15.19;24.34
22580;BME280;11456;47.030;15.396;2023-01-31T13:59:01;97777.03;;;15.30;25.04
22580;BME280;11456;47.030;15.396;2023-01-31T14:01:29;97782.06;;;15.86;24.25
22580;BME280;11456;47.030;15.396;2023-01-31T14:11:51;97773.16;;;12.74;27.77
22580;BME280;11456;47.030;15.396;2023-01-31T14:14:19;97769.47;;;13.34;26.44
22580;BME280;11456;47.030;15.396;2023-01-31T14:16:46;97779.16;;;13.69;26.54
22580;BME280;11456;47.030;15.396;2023-01-31T14:24:17;97786.25;;;13.70;26.56
22580;BME280;11456;47.030;15.396;2023-01-31T14:29:18;97782.38;;;13.06;27.21
22580;BME280;11456;47.030;15.396;2023-01-31T14:31:45;97786.25;;;13.86;27.22
22580;BME280;11456;47.030;15.396;2023-01-31T14:34:23;97796.72;;;13.56;27.05
22580;BME280;11456;47.030;15.396;2023-01-31T14:39:31;97794.75;;;12.74;27.77
22580;BME280;11456;47.030;15.396;2023-01-31T14:57:59;97784.84;;;11.01;30.23
22580;BME280;11456;47.030;15.396;2023-01-31T15:00:36;97779.59;;;11.88;28.85
22580;BME280;11456;47.030;15.396;2023-01-31T15:08:04;97780.97;;;12.18;29.98
22580;BME280;11456;47.030;15.396;2023-01-31T15:13:33;97786.31;;;11.31;29.35
22580;BME280;11456;47.030;15.396;2023-01-31T15:16:13;97783.78;;;10.84;30.34
22580;BME280;11456;47.030;15.396;2023-01-31T15:18:41;97784.34;;;10.14;32.53
22580;BME280;11456;47.030;15.396;2023-01-31T15:21:08;97783.03;;;9.71;32.02
22580;BME280;11456;47.030;15.396;2023-01-31T15:23:36;97798.63;;;9.19;33.07
22580;BME280;11456;47.030;15.396;2023-01-31T15:26:06;97792.13;;;8.23;38.12
22580;BME280;11456;47.030;15.396;2023-01-31T15:28:35;97786.06;;;8.51;38.13
22580;BME280;11456;47.030;15.396;2023-01-31T15:31:10;97785.44;;;7.66;40.48
22580;BME280;11456;47.030;15.396;2023-01-31T15:33:47;97793.22;;;7.69;40.75
22580;BME280;11456;47.030;15.396;2023-01-31T15:36:16;97786.31;;;6.82;42.89